Terminal Aerodrome Forecast
Issued by NWS

Home | Current Version | Previous Version | Text Only | Print | Product List | Glossary On
Versions: 1 2 3 4 5 6 7 8 9 10 11 12 13 14 15 16
000
FTUS45 KVEF 192300
TAFBIH
TAF
KBIH 192321Z 2000/2024 18005KT P6SM BKN150 BKN200
     FM200200 31003KT P6SM BKN140 BKN200
     FM201200 VRB05KT P6SM FEW080 BKN140 OVC200=

USA.gov is the U.S. government's official web portal to all federal, state and local government web resources and services.